Time;durP1;ratioP1;P1;durP2;ratioP2;P2;SDS_P1;SDS_P2;PMS_P1;PMS_P2;Temp;Humidity;BMP_temperature;BMP_pressure;BME280_temperature;BME280_humidity;BME280_pressure;Samples;Min_cycle;Max_cycle;Signal;HPM_P1;HPM_P2
2024/01/23 00:00:37;;;;;;;11.88;1.77;;;;;;;6.33;98.67;101566.56;4984875;28;20114;-79
2024/01/23 00:03:04;;;;;;;11.68;1.52;;;;;;;6.31;98.38;101579.44;4986371;28;20051;-79
2024/01/23 00:05:31;;;;;;;13.27;2.17;;;;;;;6.30;98.39;101588.50;4968770;28;20159;-79
2024/01/23 00:07:58;;;;;;;16.23;2.83;;;;;;;6.29;98.00;101592.28;4979365;28;20130;-77
2024/01/23 00:10:24;;;;;;;15.00;2.15;;;;;;;6.29;98.01;101597.59;4957484;28;20055;-77
2024/01/23 00:12:51;;;;;;;14.13;2.25;;;;;;;6.28;98.01;101617.22;4958949;28;20058;-77
2024/01/23 00:15:18;;;;;;;21.63;2.83;;;;;;;6.29;98.46;101610.06;4959092;28;20062;-77
2024/01/23 00:17:45;;;;;;;9.55;1.98;;;;;;;6.30;98.07;101614.19;4958488;28;20049;-77
2024/01/23 00:20:14;;;;;;;16.35;2.78;;;;;;;6.32;98.23;101611.91;4974564;28;20443;-76
2024/01/23 00:22:40;;;;;;;17.10;2.45;;;;;;;6.35;97.62;101617.19;4975302;28;20972;-76
2024/01/23 00:25:07;;;;;;;9.30;2.15;;;;;;;6.38;97.72;101638.72;4959209;28;20499;-76
2024/01/23 00:27:34;;;;;;;13.15;2.53;;;;;;;6.43;97.90;101632.97;4975639;28;20057;-76
2024/01/23 00:30:00;;;;;;;13.00;2.40;;;;;;;6.46;97.76;101640.91;4958224;28;20066;-76
2024/01/23 00:32:30;;;;;;;19.33;2.80;;;;;;;6.51;97.58;101653.72;4957375;28;20734;-76
2024/01/23 00:35:00;;;;;;;17.15;2.88;;;;;;;6.53;97.31;101634.81;4975675;28;20123;-77
2024/01/23 00:37:27;;;;;;;13.30;2.15;;;;;;;6.56;97.28;101649.91;4974672;28;20043;-77
2024/01/23 00:39:55;;;;;;;13.57;3.33;;;;;;;6.56;97.23;101642.72;4959190;28;20095;-77
2024/01/23 00:42:22;;;;;;;12.63;3.08;;;;;;;6.60;97.08;101658.56;4957711;28;20049;-77
2024/01/23 00:44:49;;;;;;;11.05;3.00;;;;;;;6.60;96.93;101674.44;4956392;28;20083;-77
2024/01/23 00:47:15;;;;;;;11.82;2.97;;;;;;;6.58;96.74;101668.78;4956250;28;20048;-77
2024/01/23 00:49:42;;;;;;;12.98;2.40;;;;;;;6.58;96.77;101655.56;4975141;28;20062;-76
2024/01/23 00:52:08;;;;;;;16.88;3.17;;;;;;;6.57;96.17;101677.88;4957758;28;20047;-77
2024/01/23 00:54:35;;;;;;;12.15;2.95;;;;;;;6.55;95.54;101677.50;4974863;28;20043;-77
2024/01/23 00:57:05;;;;;;;11.52;2.20;;;;;;;6.53;95.35;101677.88;4958325;28;20918;-77
2024/01/23 00:59:32;;;;;;;11.45;2.38;;;;;;;6.50;94.21;101681.31;4957795;28;20130;-76
2024/01/23 01:01:59;;;;;;;15.18;2.67;;;;;;;6.49;93.60;101692.28;4958128;28;20081;-77
2024/01/23 01:04:25;;;;;;;14.63;2.17;;;;;;;6.44;93.01;101690.78;4957203;28;20047;-77
2024/01/23 01:06:52;;;;;;;13.85;2.92;;;;;;;6.45;92.78;101707.41;4975425;28;20052;-77
2024/01/23 01:09:19;;;;;;;20.00;2.70;;;;;;;6.41;92.28;101706.66;4974206;28;20126;-77
2024/01/23 01:11:45;;;;;;;9.50;2.65;;;;;;;6.36;92.04;101715.78;4974820;28;20047;-77
2024/01/23 01:14:12;;;;;;;10.55;2.30;;;;;;;6.34;91.73;101726.00;4974940;28;20127;-76
2024/01/23 01:16:38;;;;;;;10.25;2.42;;;;;;;6.34;91.48;101708.25;4969723;28;20050;-77
2024/01/23 01:19:05;;;;;;;12.23;2.53;;;;;;;6.35;90.88;101730.16;4958276;28;20051;-77
2024/01/23 01:21:31;;;;;;;15.23;2.90;;;;;;;6.32;90.23;101733.56;4958489;28;20563;-77
2024/01/23 01:23:59;;;;;;;11.55;2.05;;;;;;;6.28;89.78;101738.88;4957440;28;20055;-77
2024/01/23 01:26:27;;;;;;;18.55;2.83;;;;;;;6.24;89.77;101743.41;4964710;28;20061;-76
2024/01/23 01:28:53;;;;;;;11.82;2.25;;;;;;;6.20;89.25;101741.94;4973775;28;20055;-77
2024/01/23 01:31:20;;;;;;;13.75;2.13;;;;;;;6.18;89.46;101749.50;4958122;28;20047;-77
2024/01/23 01:33:46;;;;;;;13.57;2.20;;;;;;;6.17;88.69;101751.38;4957752;28;20066;-77
2024/01/23 01:36:13;;;;;;;15.52;3.13;;;;;;;6.14;88.29;101757.44;4955941;28;20059;-76
2024/01/23 01:38:40;;;;;;;16.48;2.28;;;;;;;6.13;88.64;101766.50;4956848;28;20545;-76
2024/01/23 01:41:14;;;;;;;11.95;2.42;;;;;;;6.12;88.68;101745.72;4973041;28;20090;-77
2024/01/23 01:43:41;;;;;;;12.80;2.63;;;;;;;6.06;88.31;101750.66;4973448;28;20956;-76
2024/01/23 01:46:12;;;;;;;9.27;2.72;;;;;;;6.03;88.39;101754.06;4974977;28;20043;-76
2024/01/23 01:48:39;;;;;;;12.47;2.40;;;;;;;6.01;88.11;101770.31;4957229;28;20047;-76
2024/01/23 01:51:06;;;;;;;18.40;2.78;;;;;;;5.99;87.96;101763.94;4974979;28;20058;-77
2024/01/23 01:53:33;;;;;;;16.75;3.05;;;;;;;5.96;88.04;101775.25;4973678;28;20043;-76
2024/01/23 01:56:05;;;;;;;17.30;3.15;;;;;;;5.94;88.14;101783.56;4972829;28;20043;-76
2024/01/23 01:58:32;;;;;;;12.63;2.13;;;;;;;5.92;88.81;101791.13;4973912;28;20047;-76
2024/01/23 02:01:00;;;;;;;15.60;2.53;;;;;;;5.92;88.76;101785.09;4974530;28;20511;-76
2024/01/23 02:03:30;;;;;;;13.98;2.42;;;;;;;5.92;89.20;101793.75;4973571;28;20062;-76
2024/01/23 02:05:58;;;;;;;14.52;2.55;;;;;;;5.93;89.53;101794.53;4973719;28;20062;-76
2024/01/23 02:08:26;;;;;;;17.63;2.22;;;;;;;5.91;89.07;101794.16;4973527;28;20539;-75
2024/01/23 02:10:54;;;;;;;11.38;2.00;;;;;;;5.89;89.45;101807.75;4973467;28;20566;-75
2024/01/23 02:13:24;;;;;;;17.70;3.72;;;;;;;5.89;89.54;101799.06;4974431;28;20051;-75
2024/01/23 02:15:50;;;;;;;15.63;2.55;;;;;;;5.91;89.32;101812.66;4971350;28;20051;-76
2024/01/23 02:18:17;;;;;;;11.00;2.30;;;;;;;5.92;89.47;101820.19;4974227;28;20217;-75
2024/01/23 02:20:45;;;;;;;16.30;2.50;;;;;;;5.90;89.25;101824.34;4970312;28;20047;-75
2024/01/23 02:23:13;;;;;;;17.13;2.28;;;;;;;5.88;89.56;101835.28;4973575;28;20047;-75
2024/01/23 02:25:41;;;;;;;14.82;2.83;;;;;;;5.89;89.91;101849.28;4974173;28;20043;-76
2024/01/23 02:28:08;;;;;;;13.25;2.85;;;;;;;5.90;89.92;101846.25;4973725;28;20135;-76
2024/01/23 02:30:35;;;;;;;13.88;2.67;;;;;;;5.86;90.06;101855.28;4974164;28;20050;-76
2024/01/23 02:33:06;;;;;;;13.90;2.70;;;;;;;5.86;90.29;101857.94;4973994;28;20042;-76
2024/01/23 02:35:33;;;;;;;14.70;2.30;;;;;;;5.84;90.50;101846.97;4973659;28;20133;-76
2024/01/23 02:38:00;;;;;;;7.90;1.98;;;;;;;5.83;90.71;101866.59;4973321;28;20480;-76
2024/01/23 02:40:27;;;;;;;17.17;2.35;;;;;;;5.82;90.72;101855.28;4973843;28;20050;-76
2024/01/23 02:42:53;;;;;;;17.50;3.03;;;;;;;5.85;90.88;101880.19;4973930;28;20051;-76
2024/01/23 02:45:20;;;;;;;12.38;2.50;;;;;;;5.88;90.98;101880.19;4973838;28;20055;-75
2024/01/23 02:47:47;;;;;;;18.77;2.55;;;;;;;5.92;91.21;101888.16;4969758;28;20051;-76
2024/01/23 02:50:15;;;;;;;13.10;2.03;;;;;;;5.93;91.28;101887.03;4973192;28;20051;-76
2024/01/23 02:52:42;;;;;;;16.08;2.67;;;;;;;5.95;91.30;101882.88;4973073;28;20919;-75
2024/01/23 02:55:09;;;;;;;15.82;2.17;;;;;;;5.97;91.57;101891.19;4956549;28;20055;-75
2024/01/23 02:57:35;;;;;;;13.15;2.30;;;;;;;5.99;91.68;101883.63;4956425;28;20151;-76
2024/01/23 03:00:03;;;;;;;14.73;2.20;;;;;;;6.01;91.87;101894.53;4972198;28;20126;-76
2024/01/23 03:02:30;;;;;;;12.40;2.67;;;;;;;6.00;92.08;101902.84;4952919;28;20056;-76
2024/01/23 03:04:57;;;;;;;18.52;2.95;;;;;;;5.96;92.17;101907.41;4956012;28;20570;-76
2024/01/23 03:07:24;;;;;;;18.60;2.10;;;;;;;5.96;92.28;101907.41;4973078;28;20059;-76
2024/01/23 03:09:52;;;;;;;21.60;3.88;;;;;;;5.93;92.36;101911.56;4972726;28;20142;-76
2024/01/23 03:12:23;;;;;;;13.38;2.58;;;;;;;5.90;92.59;101927.44;4949007;28;20054;-76
2024/01/23 03:14:50;;;;;;;18.17;3.03;;;;;;;5.89;92.81;101929.31;4965086;28;20055;-75
2024/01/23 03:17:17;;;;;;;16.95;2.55;;;;;;;5.88;92.63;101925.13;4962439;28;20040;-75
2024/01/23 03:19:44;;;;;;;14.95;2.63;;;;;;;5.86;93.17;101929.28;4963495;28;20062;-75
2024/01/23 03:22:12;;;;;;;19.90;3.22;;;;;;;5.83;92.91;101938.72;4956122;28;20395;-76
2024/01/23 03:24:39;;;;;;;11.98;2.47;;;;;;;5.82;93.23;101947.78;4955516;28;20051;-76
2024/01/23 03:27:06;;;;;;;11.88;2.53;;;;;;;5.84;92.95;101942.13;4956635;28;20055;-76
2024/01/23 03:29:44;;;;;;;22.10;3.28;;;;;;;5.83;92.97;101948.53;4972936;28;20126;-76
2024/01/23 03:32:11;;;;;;;8.00;2.38;;;;;;;5.81;92.94;101942.88;4965818;28;20052;-76
2024/01/23 03:34:39;;;;;;;13.45;3.08;;;;;;;5.82;93.21;101962.88;4975046;28;20055;-77
2024/01/23 03:37:06;;;;;;;13.30;2.03;;;;;;;5.81;92.93;101962.13;4976696;28;20136;-76
2024/01/23 03:39:33;;;;;;;16.08;2.88;;;;;;;5.80;93.12;101973.06;4967093;28;20135;-76
2024/01/23 03:41:59;;;;;;;14.57;2.47;;;;;;;5.81;93.17;101967.41;4959371;28;20054;-76
2024/01/23 03:44:26;;;;;;;17.23;3.15;;;;;;;5.84;93.14;101966.66;4958171;28;20150;-76
2024/01/23 03:46:54;;;;;;;13.43;2.20;;;;;;;5.84;92.75;101979.88;4971797;28;20047;-76
2024/01/23 03:49:22;;;;;;;13.32;2.10;;;;;;;5.82;92.86;101984.78;4975741;28;20055;-76
2024/01/23 03:51:50;;;;;;;11.73;2.38;;;;;;;5.78;92.57;101988.53;4976668;28;20869;-76
2024/01/23 03:54:17;;;;;;;11.50;2.20;;;;;;;5.75;92.82;101995.31;4943052;28;20126;-75
2024/01/23 03:56:44;;;;;;;14.85;2.45;;;;;;;5.72;92.74;102001.38;4978099;28;20057;-78
2024/01/23 03:59:11;;;;;;;11.57;2.78;;;;;;;5.70;92.44;101999.09;4968249;28;20475;-78
2024/01/23 04:01:39;;;;;;;18.33;2.38;;;;;;;5.70;92.42;102001.72;4987177;28;20364;-79
2024/01/23 04:04:06;;;;;;;13.70;2.88;;;;;;;5.71;92.48;102010.41;4983265;28;20534;-78
2024/01/23 04:06:35;;;;;;;12.90;2.65;;;;;;;5.70;92.58;102011.53;4986343;28;20063;-78
2024/01/23 04:09:03;;;;;;;11.68;2.33;;;;;;;5.67;92.06;102007.75;4985993;28;20081;-79
2024/01/23 04:11:34;;;;;;;11.43;2.47;;;;;;;5.66;92.16;102022.09;4985104;28;20039;-80
2024/01/23 04:14:01;;;;;;;7.68;2.58;;;;;;;5.66;92.08;102026.63;4976240;28;20054;-80
2024/01/23 04:16:28;;;;;;;9.32;2.58;;;;;;;5.62;91.85;102025.88;4984207;28;20054;-80
2024/01/23 04:19:00;;;;;;;10.00;2.40;;;;;;;5.63;92.05;102030.03;4987551;28;20047;-80
2024/01/23 04:21:27;;;;;;;16.88;2.95;;;;;;;5.63;92.32;102045.88;4984615;28;20059;-80
2024/01/23 04:23:53;;;;;;;15.30;2.60;;;;;;;5.64;91.99;102050.03;4985520;28;20043;-80
2024/01/23 04:26:20;;;;;;;12.55;2.83;;;;;;;5.68;92.04;102046.28;4987052;28;20051;-80
2024/01/23 04:28:48;;;;;;;16.75;3.13;;;;;;;5.72;91.91;102058.72;4972384;28;20107;-79
2024/01/23 04:31:16;;;;;;;16.35;2.47;;;;;;;5.73;91.88;102053.06;4970574;28;20815;-79
2024/01/23 04:33:46;;;;;;;13.82;2.53;;;;;;;5.73;91.88;102065.53;4985196;28;20051;-79
2024/01/23 04:36:14;;;;;;;17.98;2.70;;;;;;;5.73;91.68;102068.16;4987207;28;20707;-78
2024/01/23 04:38:42;;;;;;;20.20;2.58;;;;;;;5.75;91.68;102084.41;4983802;28;20039;-78
2024/01/23 04:41:11;;;;;;;7.57;2.40;;;;;;;5.78;91.58;102075.75;4985227;28;20055;-79
2024/01/23 04:43:38;;;;;;;11.30;2.63;;;;;;;5.81;91.39;102096.91;4968289;28;20197;-78
2024/01/23 04:46:06;;;;;;;18.30;3.28;;;;;;;5.81;91.55;102088.97;4984303;28;20138;-79
2024/01/23 04:48:37;;;;;;;12.25;2.28;;;;;;;5.80;91.25;102084.81;4984156;28;20050;-78
2024/01/23 04:51:05;;;;;;;14.55;2.35;;;;;;;5.83;91.21;102104.44;4971856;28;20043;-79
2024/01/23 04:53:35;;;;;;;16.38;2.42;;;;;;;5.85;90.93;102108.22;4986846;28;20043;-79
2024/01/23 04:56:02;;;;;;;10.68;2.55;;;;;;;5.87;90.71;102108.63;4987449;28;20495;-79
2024/01/23 04:58:33;;;;;;;17.73;3.03;;;;;;;5.90;90.50;102118.47;4987051;28;20126;-80
2024/01/23 05:01:00;;;;;;;19.00;2.40;;;;;;;5.93;90.28;102127.56;4988590;28;20090;-79
2024/01/23 05:03:27;;;;;;;19.40;3.13;;;;;;;5.95;90.08;102127.94;4988082;28;20047;-79
2024/01/23 05:05:54;;;;;;;9.70;2.33;;;;;;;5.94;90.27;102137.75;4986095;28;20118;-79
2024/01/23 05:08:24;;;;;;;15.05;2.40;;;;;;;5.96;90.10;102140.03;4988047;28;20047;-78
2024/01/23 05:10:51;;;;;;;16.25;2.65;;;;;;;5.95;90.08;102149.84;4988742;28;20814;-79
2024/01/23 05:13:17;;;;;;;14.50;2.75;;;;;;;5.93;90.07;102154.75;4988260;28;20040;-79
2024/01/23 05:15:44;;;;;;;14.00;2.30;;;;;;;5.95;90.40;102154.38;4987738;28;20874;-79
2024/01/23 05:18:12;;;;;;;13.13;2.17;;;;;;;5.96;90.21;102155.88;4987176;28;20490;-79
2024/01/23 05:20:41;;;;;;;22.23;3.13;;;;;;;5.97;90.10;102152.09;4986774;28;20055;-79
2024/01/23 05:23:08;;;;;;;24.13;3.47;;;;;;;5.94;90.10;102158.13;4988063;28;20039;-79
2024/01/23 05:25:35;;;;;;;13.20;2.88;;;;;;;5.92;90.01;102155.88;4971002;28;20771;-78
2024/01/23 05:28:06;;;;;;;8.68;2.97;;;;;;;5.90;90.20;102163.41;4987472;28;20047;-78
2024/01/23 05:30:33;;;;;;;13.18;2.70;;;;;;;5.90;90.09;102163.41;4974065;28;20135;-78
2024/01/23 05:33:00;;;;;;;15.25;2.72;;;;;;;5.88;90.55;102167.53;4978803;28;20043;-78
2024/01/23 05:35:26;;;;;;;15.00;3.00;;;;;;;5.86;90.26;102194.31;4984633;28;20074;-78
2024/01/23 05:37:53;;;;;;;21.70;2.90;;;;;;;5.85;90.40;102202.63;4984997;28;20134;-77
2024/01/23 05:40:19;;;;;;;20.85;2.88;;;;;;;5.80;90.35;102195.03;4983928;28;20043;-78
2024/01/23 05:42:46;;;;;;;14.88;2.90;;;;;;;5.78;90.84;102208.63;4981232;28;20151;-78
2024/01/23 05:45:15;;;;;;;7.75;2.03;;;;;;;5.77;90.96;102219.56;4985076;28;20138;-79
2024/01/23 05:47:43;;;;;;;12.27;2.55;;;;;;;5.73;91.13;102216.16;4985796;28;20043;-79
2024/01/23 05:50:12;;;;;;;11.52;2.35;;;;;;;5.68;91.24;102214.59;4984591;28;20044;-78
2024/01/23 05:52:41;;;;;;;18.30;2.72;;;;;;;5.64;91.61;102214.59;4985056;28;20035;-79
2024/01/23 05:55:08;;;;;;;18.55;2.85;;;;;;;5.62;91.66;102221.38;4968102;28;20051;-79
2024/01/23 05:57:35;;;;;;;18.02;2.85;;;;;;;5.60;91.98;102229.66;4976507;28;20086;-79
2024/01/23 06:00:05;;;;;;;15.13;2.67;;;;;;;5.59;92.18;102233.44;4971027;28;20044;-80
2024/01/23 06:02:34;;;;;;;19.25;3.05;;;;;;;5.59;92.24;102230.06;4983661;28;20070;-80
2024/01/23 06:05:00;;;;;;;17.50;2.75;;;;;;;5.56;92.06;102234.19;4967554;28;20035;-80
2024/01/23 06:07:27;;;;;;;14.63;2.65;;;;;;;5.55;92.37;102235.31;4984071;28;20082;-79
2024/01/23 06:09:54;;;;;;;13.77;2.72;;;;;;;5.54;92.39;102247.00;4974365;28;20047;-79
2024/01/23 06:12:24;;;;;;;20.67;2.80;;;;;;;5.52;92.27;102254.53;4967751;28;20502;-78
2024/01/23 06:14:54;;;;;;;12.27;2.78;;;;;;;5.51;92.16;102262.81;4984468;28;20079;-79
2024/01/23 06:17:26;;;;;;;20.58;2.58;;;;;;;5.49;92.54;102263.19;4984579;28;20047;-79
2024/01/23 06:19:54;;;;;;;11.52;2.10;;;;;;;5.47;92.79;102262.81;4986943;28;20126;-78
2024/01/23 06:22:21;;;;;;;15.48;3.47;;;;;;;5.49;92.99;102271.13;4971132;28;20095;-79
2024/01/23 06:25:01;;;;;;;7.65;2.03;;;;;;;5.47;92.85;102269.97;4986525;28;20055;-80
2024/01/23 06:27:28;;;;;;;16.73;2.92;;;;;;;5.44;92.89;102287.31;4984114;28;20047;-79
2024/01/23 06:29:57;;;;;;;17.80;2.65;;;;;;;5.42;93.29;102286.91;4984740;28;20066;-79
2024/01/23 06:32:25;;;;;;;14.60;2.42;;;;;;;5.39;93.30;102285.00;4989675;28;20035;-78
2024/01/23 06:34:55;;;;;;;15.73;2.30;;;;;;;5.36;93.50;102298.94;4981565;28;20035;-79
2024/01/23 06:37:22;;;;;;;12.77;2.67;;;;;;;5.34;93.85;102301.94;4977455;28;20110;-79
2024/01/23 06:39:48;;;;;;;17.80;3.13;;;;;;;5.33;93.90;102302.31;4989746;28;20755;-79
2024/01/23 06:42:20;;;;;;;15.40;2.78;;;;;;;5.31;93.90;102294.75;4987313;28;20099;-79
2024/01/23 06:44:48;;;;;;;16.15;3.28;;;;;;;5.30;93.94;102295.88;4983305;28;20914;-78
2024/01/23 06:47:17;;;;;;;14.45;2.33;;;;;;;5.29;94.12;102297.00;4982504;28;20126;-79
2024/01/23 06:49:47;;;;;;;17.52;3.10;;;;;;;5.29;94.19;102280.38;4982679;28;20075;-80
2024/01/23 06:52:13;;;;;;;17.02;3.03;;;;;;;5.29;94.37;102289.06;4964866;28;20101;-78
2024/01/23 06:54:41;;;;;;;15.77;3.15;;;;;;;5.27;94.54;102301.88;4982705;28;20485;-77
2024/01/23 06:57:07;;;;;;;16.38;2.80;;;;;;;5.24;94.69;102297.31;4979600;28;20051;-75
2024/01/23 06:59:34;;;;;;;16.98;2.88;;;;;;;5.23;94.83;102295.03;4956771;28;20577;-77
2024/01/23 07:02:01;;;;;;;21.25;3.10;;;;;;;5.21;94.88;102297.28;4968704;28;20043;-77
2024/01/23 07:04:27;;;;;;;14.10;2.75;;;;;;;5.20;95.12;102314.28;4956315;28;20059;-76
2024/01/23 07:06:54;;;;;;;13.32;2.95;;;;;;;5.19;95.03;102315.41;4954217;28;20056;-76
2024/01/23 07:09:21;;;;;;;16.92;3.08;;;;;;;5.17;95.35;102310.47;4957441;28;20056;-77
2024/01/23 07:11:49;;;;;;;24.20;3.10;;;;;;;5.17;95.39;102320.28;4974417;28;20048;-77
2024/01/23 07:14:16;;;;;;;21.38;2.42;;;;;;;5.14;95.52;102316.50;4958799;28;20059;-77
2024/01/23 07:16:42;;;;;;;18.33;2.83;;;;;;;5.13;95.63;102325.53;4945981;28;20533;-77
2024/01/23 07:19:09;;;;;;;19.92;3.13;;;;;;;5.13;95.50;102328.16;4957597;28;20829;-76
2024/01/23 07:21:35;;;;;;;15.45;2.97;;;;;;;5.12;95.50;102339.09;4971239;28;20574;-75
2024/01/23 07:24:03;;;;;;;14.52;2.95;;;;;;;5.10;95.52;102351.88;4959541;28;20052;-77
2024/01/23 07:26:29;;;;;;;17.25;3.47;;;;;;;5.08;95.75;102344.34;4966087;28;20056;-78
2024/01/23 07:28:56;;;;;;;23.25;3.20;;;;;;;5.06;95.67;102357.13;4969711;28;20054;-77
2024/01/23 07:31:27;;;;;;;16.80;3.38;;;;;;;5.04;95.94;102362.00;4974409;28;20099;-76
2024/01/23 07:33:54;;;;;;;17.33;2.97;;;;;;;5.00;96.14;102351.41;4960380;28;20056;-77
2024/01/23 07:36:21;;;;;;;20.77;3.33;;;;;;;5.01;96.12;102352.19;4961622;28;20076;-79
2024/01/23 07:38:48;;;;;;;15.82;2.53;;;;;;;4.98;96.20;102348.38;4959662;28;20427;-79
2024/01/23 07:41:14;;;;;;;16.80;3.08;;;;;;;4.98;96.18;102351.00;4960770;28;20974;-79
2024/01/23 07:43:41;;;;;;;23.05;3.20;;;;;;;4.97;96.34;102356.66;4960867;28;20095;-78
2024/01/23 07:46:08;;;;;;;15.85;3.22;;;;;;;4.92;96.59;102352.44;5093411;23;20590;-78
2024/01/23 07:48:34;;;;;;;18.45;2.65;;;;;;;4.89;96.48;102358.44;4959168;28;20075;-77
2024/01/23 07:51:01;;;;;;;18.55;3.50;;;;;;;4.86;96.84;102359.16;4962323;28;20048;-77
2024/01/23 07:53:30;;;;;;;15.38;3.33;;;;;;;4.86;97.02;102358.41;4940744;28;20063;-77
2024/01/23 07:55:57;;;;;;;18.13;2.70;;;;;;;4.84;96.84;102371.19;4957587;28;20127;-78
2024/01/23 07:58:24;;;;;;;20.92;3.13;;;;;;;4.82;97.46;102378.72;4942718;28;20051;-77
2024/01/23 08:00:50;;;;;;;15.70;3.00;;;;;;;4.79;97.51;102379.47;4943179;28;20056;-78
2024/01/23 08:03:17;;;;;;;21.38;3.40;;;;;;;4.77;97.59;102390.38;4957048;28;20568;-77
2024/01/23 08:05:44;;;;;;;14.02;3.05;;;;;;;4.76;97.94;102388.84;4960264;28;20055;-77
2024/01/23 08:08:11;;;;;;;15.65;4.20;;;;;;;4.75;98.08;102387.34;4958872;28;20127;-77
2024/01/23 08:10:38;;;;;;;11.50;2.85;;;;;;;4.75;98.15;102399.75;4939240;28;20058;-77
2024/01/23 08:13:04;;;;;;;23.75;3.75;;;;;;;4.74;98.55;102396.38;4958667;28;20131;-78
2024/01/23 08:15:31;;;;;;;15.80;3.03;;;;;;;4.74;98.48;102400.88;4957451;28;20050;-80
2024/01/23 08:17:57;;;;;;;14.57;2.78;;;;;;;4.75;98.49;102416.34;4944438;28;20051;-79
2024/01/23 08:20:26;;;;;;;16.73;2.70;;;;;;;4.77;98.63;102418.63;4943705;28;20103;-78
2024/01/23 08:22:52;;;;;;;14.30;2.95;;;;;;;4.78;98.51;102425.44;4942093;28;20048;-78
2024/01/23 08:25:19;;;;;;;18.63;2.80;;;;;;;4.77;98.64;102427.31;4961131;28;20048;-77
2024/01/23 08:27:45;;;;;;;19.65;2.92;;;;;;;4.78;98.68;102441.25;4955755;28;20050;-75
2024/01/23 08:30:14;;;;;;;22.85;3.22;;;;;;;4.78;98.75;102446.53;4958577;28;20063;-79
2024/01/23 08:32:41;;;;;;;18.67;3.15;;;;;;;4.78;98.75;102446.53;4958648;28;20511;-77
2024/01/23 08:35:08;;;;;;;15.40;2.47;;;;;;;4.76;98.88;102460.09;4957982;28;20048;-77
2024/01/23 08:37:34;;;;;;;23.30;3.47;;;;;;;4.75;98.92;102460.44;4956916;28;20062;-77
2024/01/23 08:40:01;;;;;;;19.90;3.17;;;;;;;4.76;99.25;102461.97;4958987;28;20131;-77
2024/01/23 08:42:28;;;;;;;17.70;3.17;;;;;;;4.73;98.94;102463.44;4956803;28;20059;-77
2024/01/23 08:44:55;;;;;;;16.33;3.05;;;;;;;4.76;99.34;102475.94;4957183;28;20043;-77
2024/01/23 08:47:22;;;;;;;15.32;2.50;;;;;;;4.77;99.52;102474.03;4978453;28;20051;-80
2024/01/23 08:49:49;;;;;;;17.63;2.60;;;;;;;4.77;99.58;102482.72;4964708;28;20054;-79
2024/01/23 08:52:16;;;;;;;12.98;2.55;;;;;;;4.79;99.50;102474.44;4982140;28;20043;-80
2024/01/23 08:54:42;;;;;;;29.08;5.93;;;;;;;4.82;99.78;102468.44;4979924;28;20419;-79
2024/01/23 08:57:09;;;;;;;19.17;2.80;;;;;;;4.82;99.78;102471.84;4963761;28;20055;-79
2024/01/23 08:59:40;;;;;;;20.67;3.15;;;;;;;4.84;99.91;102485.44;4980677;28;20090;-80
2024/01/23 09:02:06;;;;;;;17.60;3.28;;;;;;;4.88;99.99;102480.97;4980617;28;20047;-80
2024/01/23 09:04:33;;;;;;;11.32;2.72;;;;;;;4.91;100.00;102482.13;4980300;28;20127;-79
2024/01/23 09:07:00;;;;;;;20.33;3.42;;;;;;;4.94;100.00;102478.78;4981076;28;20103;-80
2024/01/23 09:09:27;;;;;;;15.82;2.65;;;;;;;4.98;100.00;102482.22;4979804;28;20049;-80
2024/01/23 09:11:53;;;;;;;18.33;3.03;;;;;;;5.02;100.00;102480.38;4980960;28;20044;-80
2024/01/23 09:14:20;;;;;;;18.70;3.00;;;;;;;5.05;100.00;102486.84;4981279;28;20880;-80
2024/01/23 09:16:47;;;;;;;16.98;3.00;;;;;;;5.08;100.00;102494.03;4981439;28;20036;-79
2024/01/23 09:19:14;;;;;;;20.55;3.53;;;;;;;5.11;100.00;102495.97;4980717;28;20043;-80
2024/01/23 09:21:40;;;;;;;15.43;2.67;;;;;;;5.13;100.00;102491.84;4981701;28;20047;-79
2024/01/23 09:24:07;;;;;;;22.85;3.40;;;;;;;5.18;100.00;102480.22;4982167;28;20058;-80
2024/01/23 09:26:34;;;;;;;26.20;3.20;;;;;;;5.21;99.96;102477.59;4981480;28;20086;-81
2024/01/23 09:29:01;;;;;;;16.50;3.42;;;;;;;5.26;100.00;102479.16;4980072;28;20081;-79
2024/01/23 09:31:27;;;;;;;17.05;3.03;;;;;;;5.32;99.88;102489.03;4945443;28;20078;-80
2024/01/23 09:33:57;;;;;;;14.60;3.05;;;;;;;5.36;99.82;102495.13;4962309;28;20043;-79
2024/01/23 09:36:24;;;;;;;16.65;3.17;;;;;;;5.42;100.00;102492.94;4979873;28;20051;-80
2024/01/23 09:38:51;;;;;;;17.58;2.75;;;;;;;5.49;99.70;102493.00;4963419;28;20055;-80
2024/01/23 09:41:19;;;;;;;23.00;3.28;;;;;;;5.55;99.41;102494.19;4962492;28;20086;-80
2024/01/23 09:43:47;;;;;;;20.58;3.30;;;;;;;5.60;99.21;102480.63;4980012;28;20039;-80
2024/01/23 09:46:14;;;;;;;14.05;3.40;;;;;;;5.64;98.97;102489.38;4979804;28;20467;-79
2024/01/23 09:48:41;;;;;;;19.50;3.50;;;;;;;5.68;98.77;102494.69;4979078;28;20059;-80
2024/01/23 09:51:12;;;;;;;18.25;2.83;;;;;;;5.72;98.61;102498.13;4962698;28;20075;-80
2024/01/23 09:53:41;;;;;;;16.48;3.13;;;;;;;5.76;98.21;102504.22;4979355;28;20072;-80
2024/01/23 09:56:10;;;;;;;23.52;3.50;;;;;;;5.78;97.88;102514.41;4980605;28;20511;-79
2024/01/23 09:58:36;;;;;;;19.30;3.75;;;;;;;5.79;97.74;102511.41;4962064;28;20043;-79
2024/01/23 10:01:05;;;;;;;20.30;3.75;;;;;;;5.81;97.70;102506.53;4981783;28;20043;-80
2024/01/23 10:03:34;;;;;;;15.48;2.60;;;;;;;5.87;97.45;102513.00;4980994;28;20126;-80
2024/01/23 10:06:01;;;;;;;12.68;3.15;;;;;;;5.89;97.62;102510.03;4951311;28;20090;-80
2024/01/23 10:08:28;;;;;;;30.65;3.90;;;;;;;5.92;97.57;102517.25;4981125;28;20768;-80
2024/01/23 10:11:01;;;;;;;22.75;3.65;;;;;;;5.94;97.51;102501.78;4980376;28;20845;-80
2024/01/23 10:13:29;;;;;;;23.73;3.65;;;;;;;5.95;97.58;102501.41;4958593;28;20078;-79
2024/01/23 10:15:55;;;;;;;15.18;2.92;;;;;;;6.01;97.38;102507.09;4980502;28;20047;-80
2024/01/23 10:18:22;;;;;;;24.45;3.40;;;;;;;6.06;97.26;102493.53;4962381;28;20047;-80
2024/01/23 10:20:53;;;;;;;20.20;3.30;;;;;;;6.11;96.97;102493.22;4981286;28;20058;-79
2024/01/23 10:23:20;;;;;;;17.70;3.38;;;;;;;6.15;97.17;102490.59;4963110;28;20866;-80
2024/01/23 10:25:48;;;;;;;18.55;2.85;;;;;;;6.19;97.03;102497.44;4979894;28;20107;-80
2024/01/23 10:28:15;;;;;;;24.48;4.00;;;;;;;6.22;96.98;102494.06;4962469;28;20047;-80
2024/01/23 10:30:45;;;;;;;18.08;3.15;;;;;;;6.29;96.69;102496.78;4965939;28;20055;-80
2024/01/23 10:33:12;;;;;;;23.20;3.63;;;;;;;6.36;96.32;102501.34;4963376;28;20094;-80
2024/01/23 10:35:41;;;;;;;21.23;3.65;;;;;;;6.39;96.26;102502.50;4981400;28;20846;-80
2024/01/23 10:38:13;;;;;;;13.77;3.08;;;;;;;6.41;95.93;102511.56;4981435;28;20032;-80
2024/01/23 10:40:40;;;;;;;19.98;3.88;;;;;;;6.45;96.02;102507.06;4962945;28;20515;-80
2024/01/23 10:43:08;;;;;;;15.52;2.90;;;;;;;6.51;95.73;102508.25;4963794;28;20530;-80
2024/01/23 10:45:36;;;;;;;20.92;3.00;;;;;;;6.51;95.40;102508.25;4980623;28;20066;-80
2024/01/23 10:48:06;;;;;;;15.93;2.70;;;;;;;6.47;95.36;102496.13;4978361;28;20031;-80
2024/01/23 10:50:34;;;;;;;16.13;3.28;;;;;;;6.45;95.39;102501.00;4974159;28;20051;-80
2024/01/23 10:53:15;;;;;;;14.32;2.95;;;;;;;6.49;95.55;102486.69;4981435;28;20043;-80
2024/01/23 10:55:43;;;;;;;18.60;3.42;;;;;;;6.57;95.59;102484.84;4964197;28;20071;-80
2024/01/23 10:58:21;;;;;;;19.75;3.22;;;;;;;6.63;95.28;102486.03;4986025;28;20092;-79
2024/01/23 11:00:50;;;;;;;21.67;3.92;;;;;;;6.68;94.98;102489.06;4970250;28;20805;-79
2024/01/23 11:03:17;;;;;;;17.20;3.83;;;;;;;6.71;94.96;102482.28;4988200;28;20047;-79
2024/01/23 11:05:59;;;;;;;16.13;3.28;;;;;;;6.75;95.02;102477.03;4969519;28;20109;-79
2024/01/23 11:09:18;;;;;;;16.45;2.72;;;;;;;6.79;94.86;102486.50;4987498;28;20043;-79
2024/01/23 11:11:51;;;;;;;15.63;3.17;;;;;;;6.81;94.77;102473.63;4964985;28;20064;-79
2024/01/23 11:14:23;;;;;;;13.40;3.13;;;;;;;6.83;94.45;102471.38;4983978;28;20075;-79
2024/01/23 11:17:06;;;;;;;17.55;3.20;;;;;;;6.84;94.29;102472.88;4958765;28;20500;-81
2024/01/23 11:19:42;;;;;;;18.33;3.78;;;;;;;6.82;94.13;102467.19;4974388;28;20511;-77
2024/01/23 11:22:09;;;;;;;18.55;3.28;;;;;;;6.86;93.88;102453.97;4971487;28;20106;-77
2024/01/23 11:24:45;;;;;;;14.30;3.35;;;;;;;6.97;93.96;102462.72;4974053;28;20047;-77
2024/01/23 11:27:23;;;;;;;24.23;3.05;;;;;;;7.00;93.49;102460.09;4971324;28;20546;-77